Accueil
METAR-TAF:

METAR-TAF

Aéroports :

Montichiari

Brescia, Italie

latitude: 45-24-02N, longitude: 010-18-59E, altitude: 104 m

Observation

Le bulletin a été fait il y a 38 minutes, à 00:50 UTC
Vent 4 kt de est
Température 5°C
Humidité 87%
Pression 1016 hPa
Visibilité 10 km ou plus
Nuages épars à une hauteur de 5000 ft

METAR: LIPO 170050Z 10004KT 9999 SCT050 05/03 Q1016

Heure: 02:28 (01:28 UTC)

Prévision

Le bulletin a été fait il y a 2 heures et 28 minutes, à 23:00 UTC
Prévision valable du 17 à 00 UTC au 17 à 24 UTC
Vent 5 kt de direction variable
Visibilité: 7000 m
Nuages fragmentés à une hauteur de 5000 ft
pluie
Evoluant progressivement
du 17 à 16 UTC au 17 à 18 UTC

TAF: LIPO 162300Z 1700/1724 VRB05KT 7000 RA BKN050 BECMG 1716/1718 NSW

Observations et prévisions météorologiques de plus de 4000 aéroports (messages METAR et TAF).

Les stations disponibles sont représentées par des disques jaunes et rouges sur la carte.

Passer la souris dessus pour voir le nom de la station.

Cliquer dessus pour voir les observations et prévisions météorologiques.

Pour changer de carte: cliquez sur les boutons verts avec une croix noire pour zoomer, sur le bouton vert avec un tiret pour effectuer un zoom arrière, ou sur les flèches vertes pour les cartes adjacentes.


METAR-TAF: